Time;durP1;ratioP1;P1;durP2;ratioP2;P2;SDS_P1;SDS_P2;PMS_P1;PMS_P2;Temp;Humidity;BMP_temperature;BMP_pressure;BME280_temperature;BME280_humidity;BME280_pressure;Samples;Min_cycle;Max_cycle;Signal;HPM_P1;HPM_P2
2022/03/23 00:00:39;;;;;;;22.08;13.90;;;17.20;45.50;;;;;;5054214;28;20354;-81
2022/03/23 00:03:05;;;;;;;26.58;13.18;;;17.10;45.20;;;;;;5054185;28;20539;-81
2022/03/23 00:05:32;;;;;;;22.25;12.23;;;17.10;45.20;;;;;;5054195;28;20387;-81
2022/03/23 00:07:58;;;;;;;22.85;12.40;;;17.00;45.40;;;;;;5053932;28;20037;-81
2022/03/23 00:10:24;;;;;;;20.92;13.07;;;17.00;45.70;;;;;;5054072;28;20074;-81
2022/03/23 00:12:51;;;;;;;20.50;12.07;;;17.00;46.00;;;;;;5054361;28;20021;-80
2022/03/23 00:15:17;;;;;;;29.85;12.93;;;17.00;45.80;;;;;;5053867;28;20041;-81
2022/03/23 00:17:43;;;;;;;23.33;14.25;;;16.90;45.70;;;;;;5054036;28;20028;-80
2022/03/23 00:20:09;;;;;;;21.00;13.23;;;16.90;45.70;;;;;;5053697;28;20056;-80
2022/03/23 00:22:35;;;;;;;23.73;13.02;;;16.90;45.50;;;;;;5054060;28;20093;-80
2022/03/23 00:25:01;;;;;;;22.60;13.25;;;16.80;45.50;;;;;;5053523;28;20041;-79
2022/03/23 00:27:26;;;;;;;25.42;14.18;;;16.80;45.50;;;;;;5054061;28;20040;-80
2022/03/23 00:29:52;;;;;;;22.20;13.30;;;16.70;45.70;;;;;;5053739;28;20033;-80
2022/03/23 00:32:18;;;;;;;19.80;13.18;;;16.70;45.80;;;;;;5053694;28;20024;-80
2022/03/23 00:34:43;;;;;;;25.40;13.38;;;16.70;45.80;;;;;;5053853;28;20041;-80
2022/03/23 00:37:09;;;;;;;21.33;11.85;;;16.70;45.80;;;;;;5053603;28;20021;-80
2022/03/23 00:39:35;;;;;;;19.02;12.63;;;16.70;46.00;;;;;;5053742;28;20032;-80
2022/03/23 00:42:00;;;;;;;22.90;13.30;;;16.70;46.80;;;;;;5053613;28;20013;-80
2022/03/23 00:44:26;;;;;;;22.30;13.43;;;16.70;46.20;;;;;;5053373;28;20464;-78
2022/03/23 00:46:51;;;;;;;19.52;11.90;;;16.60;46.20;;;;;;5053128;28;20032;-78
2022/03/23 00:49:17;;;;;;;23.58;12.82;;;16.60;46.20;;;;;;5053438;28;20543;-78
2022/03/23 00:51:43;;;;;;;24.10;13.25;;;16.60;46.80;;;;;;5053323;28;20028;-78
2022/03/23 00:54:09;;;;;;;23.95;13.13;;;16.70;46.40;;;;;;5053463;28;20096;-78
2022/03/23 00:56:37;;;;;;;23.58;13.15;;;16.60;46.00;;;;;;5053361;28;20468;-77
2022/03/23 00:59:04;;;;;;;24.05;14.00;;;16.60;46.10;;;;;;5052984;28;20396;-78
2022/03/23 01:01:30;;;;;;;26.33;15.18;;;16.50;45.80;;;;;;5053348;28;20055;-77
2022/03/23 01:03:56;;;;;;;23.30;14.18;;;16.50;45.50;;;;;;5053496;28;20025;-77
2022/03/23 01:06:22;;;;;;;27.67;13.95;;;16.50;45.80;;;;;;5053328;28;20031;-77
2022/03/23 01:08:47;;;;;;;25.13;12.57;;;16.50;45.60;;;;;;5053144;28;20065;-77
2022/03/23 01:11:13;;;;;;;26.20;14.23;;;16.40;45.50;;;;;;5053535;28;20025;-77
2022/03/23 01:13:39;;;;;;;23.35;14.00;;;16.40;45.80;;;;;;5052852;28;20036;-77
2022/03/23 01:16:05;;;;;;;24.08;13.43;;;16.30;45.40;;;;;;5053412;28;20103;-77
2022/03/23 01:18:31;;;;;;;26.52;14.68;;;16.30;45.40;;;;;;5053371;28;20029;-77
2022/03/23 01:20:57;;;;;;;24.70;14.82;;;16.30;45.00;;;;;;5053300;28;20021;-77
2022/03/23 01:23:23;;;;;;;25.88;13.80;;;16.20;44.80;;;;;;5053095;28;20376;-77
2022/03/23 01:25:49;;;;;;;23.25;13.15;;;16.10;45.10;;;;;;5053170;28;20025;-77
2022/03/23 01:28:14;;;;;;;23.48;12.98;;;16.10;45.20;;;;;;5053165;28;20021;-78
2022/03/23 01:30:40;;;;;;;21.58;12.45;;;16.10;45.40;;;;;;5053226;28;20028;-78
2022/03/23 01:33:06;;;;;;;21.40;13.23;;;16.10;45.50;;;;;;5052874;28;20029;-78
2022/03/23 01:35:31;;;;;;;20.83;12.50;;;16.10;45.60;;;;;;5052915;28;20037;-78
2022/03/23 01:37:57;;;;;;;22.15;12.60;;;16.10;45.30;;;;;;5056811;28;20025;-78
2022/03/23 01:40:23;;;;;;;25.35;13.85;;;16.10;45.30;;;;;;5057218;28;20112;-78
2022/03/23 01:42:48;;;;;;;20.75;13.32;;;16.10;44.60;;;;;;5057176;28;20052;-78
2022/03/23 01:45:15;;;;;;;26.83;15.23;;;16.00;44.50;;;;;;5056931;28;20028;-78
2022/03/23 01:47:41;;;;;;;22.85;13.98;;;16.00;45.40;;;;;;5056665;28;20025;-78
2022/03/23 01:50:08;;;;;;;22.55;13.63;;;16.00;44.80;;;;;;5056986;28;20384;-78
2022/03/23 01:52:34;;;;;;;20.67;12.18;;;16.00;44.60;;;;;;5056988;28;20043;-77
2022/03/23 01:55:04;;;;;;;20.63;13.75;;;15.90;44.60;;;;;;5056972;28;20467;-77
2022/03/23 01:57:30;;;;;;;22.20;13.50;;;15.90;44.40;;;;;;5056764;28;20032;-77
2022/03/23 01:59:56;;;;;;;22.10;13.77;;;15.80;43.90;;;;;;5056764;28;20025;-78
2022/03/23 02:02:21;;;;;;;25.00;13.00;;;15.80;44.10;;;;;;5056966;28;20025;-78
2022/03/23 02:04:47;;;;;;;20.20;12.30;;;15.80;44.30;;;;;;5056795;28;20025;-78
2022/03/23 02:07:14;;;;;;;22.15;13.63;;;15.80;44.30;;;;;;5056665;28;20108;-77
2022/03/23 02:09:40;;;;;;;21.52;12.27;;;15.80;44.10;;;;;;5056183;28;20514;-77
2022/03/23 02:12:08;;;;;;;21.08;12.80;;;15.80;44.00;;;;;;5056231;28;20025;-78
2022/03/23 02:14:36;;;;;;;16.40;10.70;;;15.80;44.10;;;;;;5056568;28;20033;-77
2022/03/23 02:17:02;;;;;;;21.75;12.02;;;15.80;44.30;;;;;;5056210;28;20025;-78
2022/03/23 02:19:28;;;;;;;19.38;12.38;;;15.80;44.60;;;;;;5056303;28;20029;-78
2022/03/23 02:21:54;;;;;;;23.60;13.55;;;15.90;44.20;;;;;;5056168;28;20017;-78
2022/03/23 02:24:28;;;;;;;18.88;12.45;;;15.90;44.00;;;;;;5056341;28;20112;-78
2022/03/23 02:26:55;;;;;;;21.10;12.07;;;15.90;43.50;;;;;;5056557;28;20025;-78
2022/03/23 02:29:23;;;;;;;21.80;13.23;;;15.90;43.50;;;;;;5056304;28;20044;-78
2022/03/23 02:31:49;;;;;;;20.30;13.02;;;15.90;43.60;;;;;;5055988;28;20024;-78
2022/03/23 02:34:15;;;;;;;25.92;13.25;;;15.80;43.70;;;;;;5055891;28;20127;-78
2022/03/23 02:36:41;;;;;;;20.23;12.43;;;15.80;43.60;;;;;;5056046;28;20025;-78
2022/03/23 02:39:06;;;;;;;19.02;12.70;;;15.80;43.80;;;;;;5055921;28;20128;-78
2022/03/23 02:41:32;;;;;;;16.50;10.77;;;15.80;44.00;;;;;;5056155;28;20525;-78
2022/03/23 02:43:59;;;;;;;17.75;12.10;;;15.80;44.20;;;;;;5055517;28;20385;-81
2022/03/23 02:46:26;;;;;;;18.98;12.45;;;15.90;44.40;;;;;;5055862;28;20029;-80
2022/03/23 02:48:52;;;;;;;21.50;12.63;;;15.90;44.30;;;;;;5055037;28;20104;-80
2022/03/23 02:51:18;;;;;;;24.58;14.02;;;15.80;43.70;;;;;;5055654;28;20052;-80
2022/03/23 03:03:05;;;;;;;22.55;13.43;;;15.70;43.20;;;;;;5055549;28;20487;-79
2022/03/23 03:05:31;;;;;;;22.38;13.35;;;15.60;43.30;;;;;;5055461;28;20024;-79
2022/03/23 03:10:40;;;;;;;19.05;12.50;;;15.50;43.70;;;;;;5055361;28;20023;-78
2022/03/23 03:13:06;;;;;;;19.45;12.20;;;15.50;44.00;;;;;;5055392;28;20112;-78
2022/03/23 03:15:31;;;;;;;18.23;12.55;;;15.50;44.20;;;;;;5054970;28;20064;-79
2022/03/23 03:17:57;;;;;;;18.63;12.80;;;15.50;44.30;;;;;;5055363;28;20383;-78
2022/03/23 03:20:23;;;;;;;20.75;13.45;;;15.50;44.20;;;;;;5055112;28;20514;-78
2022/03/23 03:22:49;;;;;;;23.35;13.35;;;15.50;44.10;;;;;;5055437;28;20112;-78
2022/03/23 03:25:16;;;;;;;20.83;13.77;;;15.50;44.10;;;;;;5055255;28;20025;-79
2022/03/23 03:27:43;;;;;;;23.13;14.35;;;15.40;43.80;;;;;;5054927;28;20478;-78
2022/03/23 03:30:12;;;;;;;22.27;14.25;;;15.40;43.80;;;;;;5054558;28;20036;-78
2022/03/23 03:32:38;;;;;;;25.05;13.45;;;15.30;43.70;;;;;;5055117;28;20024;-78
2022/03/23 03:35:04;;;;;;;19.27;12.90;;;15.30;44.10;;;;;;5054972;28;20037;-78
2022/03/23 03:37:30;;;;;;;23.58;13.82;;;15.30;44.40;;;;;;5054767;28;20047;-78
2022/03/23 03:39:55;;;;;;;22.05;13.15;;;15.30;44.50;;;;;;5054834;28;20036;-78
2022/03/23 03:42:21;;;;;;;24.73;13.85;;;15.20;44.30;;;;;;5054716;28;20396;-78
2022/03/23 03:44:50;;;;;;;24.25;13.30;;;15.30;45.00;;;;;;5054637;28;20028;-78
2022/03/23 03:47:16;;;;;;;26.60;15.70;;;15.20;44.60;;;;;;5054806;28;20075;-78
2022/03/23 03:49:42;;;;;;;23.80;14.73;;;15.20;44.40;;;;;;5054573;28;20108;-79
2022/03/23 03:52:08;;;;;;;24.40;14.65;;;15.10;44.20;;;;;;5054841;28;20152;-79
2022/03/23 03:54:33;;;;;;;22.65;13.13;;;15.00;44.10;;;;;;5054196;28;20395;-79
2022/03/23 03:56:59;;;;;;;20.65;14.25;;;15.00;44.60;;;;;;5054617;28;20104;-83
2022/03/23 03:59:25;;;;;;;20.85;12.85;;;15.00;44.90;;;;;;5053882;28;20071;-78
2022/03/23 04:01:50;;;;;;;25.10;14.13;;;15.10;44.90;;;;;;5054095;28;20024;-78
2022/03/23 04:04:16;;;;;;;20.98;13.95;;;15.00;44.80;;;;;;5054218;28;20029;-78
2022/03/23 04:06:42;;;;;;;25.80;14.45;;;15.00;45.30;;;;;;5054495;28;20419;-78
2022/03/23 04:09:08;;;;;;;20.70;13.27;;;15.00;44.70;;;;;;5054031;28;20457;-78
2022/03/23 04:11:35;;;;;;;19.33;13.20;;;15.00;44.80;;;;;;5054018;28;20107;-79
2022/03/23 04:14:01;;;;;;;19.90;12.95;;;15.00;45.00;;;;;;5053746;28;20492;-79
2022/03/23 04:16:26;;;;;;;23.48;13.43;;;15.00;44.80;;;;;;5054150;28;20048;-78
2022/03/23 04:18:52;;;;;;;27.52;14.95;;;15.00;44.70;;;;;;5054354;28;20059;-78
2022/03/23 04:21:18;;;;;;;21.10;13.57;;;15.10;45.10;;;;;;5053884;28;20032;-79
2022/03/23 04:23:43;;;;;;;22.42;14.07;;;15.00;45.10;;;;;;5053943;28;20025;-79
2022/03/23 04:26:09;;;;;;;22.50;14.95;;;15.10;44.60;;;;;;5053555;28;20106;-78
2022/03/23 04:28:35;;;;;;;22.73;14.75;;;15.00;44.50;;;;;;5054157;28;20036;-79
2022/03/23 04:31:01;;;;;;;24.55;15.18;;;15.00;45.00;;;;;;5053948;28;20025;-78
2022/03/23 04:33:27;;;;;;;23.40;15.32;;;15.00;44.50;;;;;;5053883;28;20348;-78
2022/03/23 04:35:53;;;;;;;24.23;16.33;;;14.90;44.30;;;;;;5053802;28;20025;-76
2022/03/23 04:38:19;;;;;;;26.88;15.00;;;14.90;44.30;;;;;;5053678;28;20024;-77
2022/03/23 04:40:45;;;;;;;22.85;14.80;;;14.80;44.40;;;;;;5053869;28;20061;-77
2022/03/23 04:43:11;;;;;;;22.67;14.63;;;14.70;44.70;;;;;;5053851;28;20021;-77
2022/03/23 04:45:36;;;;;;;22.13;14.77;;;14.70;44.40;;;;;;5053572;28;20052;-77
2022/03/23 04:48:02;;;;;;;25.42;14.60;;;14.70;44.90;;;;;;5053512;28;20152;-77
2022/03/23 04:50:28;;;;;;;22.50;15.25;;;14.70;44.70;;;;;;5053507;28;20025;-77
2022/03/23 04:52:54;;;;;;;22.77;14.98;;;14.60;44.60;;;;;;5053302;28;20112;-76
2022/03/23 04:55:20;;;;;;;23.38;14.90;;;14.60;45.00;;;;;;5053383;28;20120;-77
2022/03/23 04:57:46;;;;;;;26.02;16.08;;;14.60;45.30;;;;;;5053609;28;20025;-77
2022/03/23 05:00:15;;;;;;;23.00;15.70;;;14.50;44.90;;;;;;5053464;28;20074;-80
2022/03/23 05:02:42;;;;;;;24.33;15.20;;;14.40;44.80;;;;;;5053138;28;20025;-80
2022/03/23 05:05:10;;;;;;;28.73;15.27;;;14.30;45.30;;;;;;5053565;28;20033;-80
2022/03/23 05:07:36;;;;;;;25.73;15.23;;;14.30;46.30;;;;;;5053253;28;20017;-80
2022/03/23 05:10:02;;;;;;;24.35;15.45;;;14.20;45.20;;;;;;5053226;28;20145;-81
2022/03/23 05:12:28;;;;;;;31.02;16.05;;;14.10;45.80;;;;;;5052838;28;20387;-80
2022/03/23 05:14:54;;;;;;;26.30;15.88;;;14.00;45.60;;;;;;5053409;28;20136;-81
2022/03/23 05:17:19;;;;;;;27.58;16.98;;;13.90;45.60;;;;;;5053345;28;20029;-79
2022/03/23 05:19:45;;;;;;;24.25;16.55;;;13.80;46.10;;;;;;5053444;28;20021;-80
2022/03/23 05:22:11;;;;;;;23.38;14.82;;;13.70;46.40;;;;;;5053128;28;20108;-80
2022/03/23 05:24:38;;;;;;;22.95;14.93;;;13.60;46.50;;;;;;5053009;28;20045;-80
2022/03/23 05:27:03;;;;;;;27.85;15.80;;;13.70;46.60;;;;;;5053313;28;20021;-80
2022/03/23 05:29:29;;;;;;;26.90;16.33;;;13.70;46.90;;;;;;5053303;28;20495;-80
2022/03/23 05:31:55;;;;;;;29.15;16.83;;;13.70;46.60;;;;;;5052977;28;20029;-79
2022/03/23 05:34:21;;;;;;;28.23;17.05;;;13.60;47.40;;;;;;5052879;28;20542;-79
2022/03/23 05:36:46;;;;;;;22.45;14.98;;;13.60;47.20;;;;;;5052983;28;20057;-80
2022/03/23 05:39:13;;;;;;;27.08;15.82;;;13.60;47.50;;;;;;5053038;28;20112;-80
2022/03/23 05:41:38;;;;;;;26.45;16.15;;;13.60;47.40;;;;;;5052754;28;20024;-80
2022/03/23 05:44:05;;;;;;;28.35;16.20;;;13.60;47.40;;;;;;5053106;28;20122;-80
2022/03/23 05:46:30;;;;;;;28.75;18.15;;;13.60;47.80;;;;;;5053186;28;20025;-79
2022/03/23 05:48:56;;;;;;;24.35;16.38;;;13.50;47.30;;;;;;5052802;28;20021;-78
2022/03/23 05:51:23;;;;;;;27.17;17.10;;;13.50;47.50;;;;;;5052985;28;20071;-77
2022/03/23 05:53:49;;;;;;;28.33;16.60;;;13.50;47.80;;;;;;5052372;28;20488;-77
2022/03/23 05:56:15;;;;;;;26.35;17.35;;;13.40;47.80;;;;;;5052983;28;20048;-77
2022/03/23 05:58:40;;;;;;;28.38;16.50;;;13.40;48.80;;;;;;5052863;28;20021;-77
2022/03/23 06:01:06;;;;;;;28.85;17.48;;;13.40;48.50;;;;;;5052817;28;20037;-81
2022/03/23 06:03:32;;;;;;;26.15;13.80;;;13.40;49.20;;;;;;5052914;28;20360;-79
2022/03/23 06:05:58;;;;;;;27.05;13.38;;;13.50;51.60;;;;;;5052831;28;20381;-78
2022/03/23 06:08:24;;;;;;;25.95;15.63;;;13.50;51.70;;;;;;5052364;28;20500;-74
2022/03/23 06:10:49;;;;;;;28.02;15.45;;;13.60;51.60;;;;;;5052806;28;20111;-76
2022/03/23 06:13:15;;;;;;;26.45;15.63;;;13.70;51.00;;;;;;5052773;28;20032;-76
2022/03/23 06:15:41;;;;;;;28.63;16.05;;;13.80;50.70;;;;;;5052222;28;20032;-79
2022/03/23 06:18:07;;;;;;;25.77;14.95;;;13.90;50.50;;;;;;5052349;28;20025;-78
2022/03/23 06:20:32;;;;;;;27.40;15.68;;;13.90;50.80;;;;;;5052516;28;20021;-79
2022/03/23 06:22:58;;;;;;;25.42;14.98;;;13.90;51.00;;;;;;5052950;28;20025;-81
2022/03/23 06:25:27;;;;;;;30.98;17.17;;;14.00;50.90;;;;;;5056325;28;20029;-78
2022/03/23 06:27:53;;;;;;;32.90;19.70;;;14.10;50.90;;;;;;5055508;28;20032;-77
2022/03/23 06:30:19;;;;;;;29.17;16.75;;;14.00;49.50;;;;;;5054676;28;20028;-77
2022/03/23 06:32:44;;;;;;;29.73;17.15;;;14.00;49.90;;;;;;5054350;28;20082;-77
2022/03/23 06:35:10;;;;;;;30.45;18.90;;;14.10;49.90;;;;;;5052936;28;20396;-79
2022/03/23 06:37:36;;;;;;;31.73;19.35;;;14.10;49.80;;;;;;5054512;28;20064;-79
2022/03/23 06:40:03;;;;;;;33.67;18.95;;;14.00;49.10;;;;;;5054852;28;20060;-79
2022/03/23 06:42:29;;;;;;;38.17;19.45;;;13.80;49.10;;;;;;5054493;28;20388;-79
2022/03/23 06:44:55;;;;;;;26.48;17.23;;;13.70;50.10;;;;;;5054488;28;20025;-78
2022/03/23 06:47:20;;;;;;;31.05;19.02;;;13.60;51.00;;;;;;5054801;28;20044;-78
2022/03/23 06:49:46;;;;;;;30.55;17.42;;;13.60;51.00;;;;;;5047119;28;20056;-78
2022/03/23 06:52:12;;;;;;;35.22;19.65;;;13.70;50.90;;;;;;5054434;28;20037;-77
2022/03/23 06:54:37;;;;;;;27.40;17.58;;;13.80;50.70;;;;;;5054184;28;20033;-79
2022/03/23 06:57:03;;;;;;;34.17;18.98;;;13.80;50.70;;;;;;5054110;28;20067;-78
2022/03/23 06:59:29;;;;;;;32.38;18.33;;;13.90;50.90;;;;;;5053869;28;20353;-78
2022/03/23 07:01:54;;;;;;;32.08;19.33;;;14.00;50.40;;;;;;5053935;28;20409;-79
2022/03/23 07:04:24;;;;;;;32.17;19.17;;;13.90;50.40;;;;;;5053526;28;20025;-80
2022/03/23 07:06:51;;;;;;;28.40;19.23;;;14.00;49.90;;;;;;5051475;28;20029;-79
2022/03/23 07:09:31;;;;;;;32.67;19.77;;;14.00;49.40;;;;;;5052135;28;20404;-79
2022/03/23 07:12:00;;;;;;;33.13;20.85;;;13.80;49.40;;;;;;5054464;28;20116;-77
2022/03/23 07:14:28;;;;;;;31.60;19.50;;;13.70;49.10;;;;;;5053903;28;20039;-77
2022/03/23 07:16:53;;;;;;;30.90;16.80;;;13.50;49.90;;;;;;5053966;28;20071;-79
2022/03/23 07:19:19;;;;;;;33.40;20.70;;;13.60;50.80;;;;;;5054748;28;20033;-80
2022/03/23 07:21:45;;;;;;;37.55;20.70;;;13.70;49.90;;;;;;5054272;28;20025;-79
2022/03/23 07:24:11;;;;;;;32.88;20.70;;;13.70;50.10;;;;;;5054734;28;20036;-79
2022/03/23 07:26:36;;;;;;;32.00;20.08;;;13.70;50.50;;;;;;5054727;28;20021;-82
2022/03/23 07:29:03;;;;;;;34.45;20.83;;;13.80;50.00;;;;;;5054032;28;20028;-80
2022/03/23 07:31:28;;;;;;;33.28;20.75;;;13.80;50.10;;;;;;5050029;28;20412;-86
2022/03/23 07:33:54;;;;;;;33.58;19.98;;;13.90;50.00;;;;;;5054546;28;20033;-80
2022/03/23 07:36:20;;;;;;;32.00;21.65;;;14.10;50.20;;;;;;5054258;28;20120;-83
2022/03/23 07:38:45;;;;;;;32.00;20.42;;;14.10;50.90;;;;;;5054891;28;20032;-83
2022/03/23 07:41:11;;;;;;;33.38;20.25;;;14.10;50.30;;;;;;5054703;28;20024;-82
2022/03/23 07:43:36;;;;;;;33.25;19.83;;;14.20;50.80;;;;;;5054361;28;20456;-83
2022/03/23 07:46:02;;;;;;;33.65;20.48;;;14.20;50.50;;;;;;5054366;28;20071;-81
2022/03/23 07:48:28;;;;;;;33.53;20.38;;;14.40;50.70;;;;;;5054221;28;20017;-85
2022/03/23 07:50:56;;;;;;;33.42;21.00;;;14.50;50.80;;;;;;5054318;28;20025;-85
2022/03/23 07:53:22;;;;;;;35.08;21.50;;;14.60;49.40;;;;;;5054218;28;20025;-86
2022/03/23 07:55:47;;;;;;;39.40;21.33;;;14.50;48.90;;;;;;5054273;28;20028;-81
2022/03/23 07:58:13;;;;;;;38.33;22.50;;;14.50;49.60;;;;;;5052686;28;20104;-80
2022/03/23 08:00:41;;;;;;;33.72;22.45;;;14.50;50.10;;;;;;5052747;28;20028;-79
2022/03/23 08:03:07;;;;;;;36.08;22.02;;;14.50;50.00;;;;;;5052608;28;20083;-85
2022/03/23 08:05:33;;;;;;;32.95;21.52;;;14.60;49.80;;;;;;5052962;28;20025;-82
2022/03/23 08:07:59;;;;;;;33.95;22.13;;;14.60;49.60;;;;;;5051861;28;20053;-84
2022/03/23 08:10:25;;;;;;;38.95;22.80;;;14.80;49.20;;;;;;5053050;28;20083;-84
2022/03/23 08:12:59;;;;;;;38.35;22.33;;;14.80;49.40;;;;;;5052664;28;20028;-85
2022/03/23 08:15:25;;;;;;;37.42;22.15;;;14.80;49.30;;;;;;5047479;28;20037;-82
2022/03/23 08:17:50;;;;;;;32.33;20.73;;;14.90;49.70;;;;;;5052538;28;20124;-82
2022/03/23 08:23:05;;;;;;;32.83;22.25;;;15.20;50.00;;;;;;5052728;28;20052;-85
2022/03/23 08:25:31;;;;;;;43.78;21.55;;;15.40;50.00;;;;;;5052226;28;20029;-86
2022/03/23 08:27:58;;;;;;;40.97;22.40;;;15.60;48.90;;;;;;5052192;28;20053;-85
2022/03/23 08:30:24;;;;;;;39.28;22.25;;;15.70;48.80;;;;;;5052699;28;20033;-86
2022/03/23 08:32:50;;;;;;;33.40;21.45;;;15.80;48.80;;;;;;5053069;28;20032;-85
2022/03/23 08:35:16;;;;;;;34.35;23.02;;;15.90;48.40;;;;;;5051833;28;20480;-83
2022/03/23 08:37:42;;;;;;;35.60;22.90;;;15.80;48.20;;;;;;5047683;28;20379;-85
2022/03/23 08:40:08;;;;;;;36.40;23.63;;;15.80;48.10;;;;;;5051653;28;20107;-82
2022/03/23 08:42:34;;;;;;;33.03;20.95;;;15.70;48.60;;;;;;5052274;28;20143;-81
2022/03/23 08:44:59;;;;;;;32.35;21.92;;;15.80;48.30;;;;;;5053630;28;20036;-81
2022/03/23 08:47:27;;;;;;;31.55;21.08;;;16.00;48.20;;;;;;5052784;28;20036;-79
2022/03/23 08:49:56;;;;;;;33.28;22.58;;;16.10;48.20;;;;;;5053042;28;20057;-80
2022/03/23 08:52:25;;;;;;;35.70;23.38;;;16.40;48.30;;;;;;5052692;28;20404;-80
2022/03/23 08:54:51;;;;;;;44.05;23.80;;;16.50;47.50;;;;;;5051663;28;20040;-78
2022/03/23 08:57:16;;;;;;;31.48;21.77;;;16.50;46.90;;;;;;5052186;28;20380;-77
2022/03/23 08:59:42;;;;;;;35.85;23.95;;;16.60;47.70;;;;;;5050192;28;20099;-78
2022/03/23 09:02:09;;;;;;;34.75;23.08;;;16.70;47.70;;;;;;5052931;28;20040;-76
2022/03/23 09:04:34;;;;;;;33.65;23.13;;;16.70;47.00;;;;;;5052179;28;20029;-77
2022/03/23 09:07:00;;;;;;;36.47;22.75;;;16.80;46.80;;;;;;5053247;28;20064;-76
2022/03/23 09:09:26;;;;;;;36.03;23.15;;;16.90;46.20;;;;;;5052800;28;20519;-76
2022/03/23 09:11:51;;;;;;;35.10;22.52;;;17.00;45.80;;;;;;5053088;28;20025;-76
2022/03/23 09:14:17;;;;;;;32.15;21.10;;;17.10;45.70;;;;;;5052354;28;20495;-77
2022/03/23 09:16:43;;;;;;;38.28;23.23;;;17.30;46.60;;;;;;5052811;28;20028;-76
2022/03/23 09:19:09;;;;;;;40.33;23.55;;;17.60;45.80;;;;;;5053102;28;20526;-77
2022/03/23 09:21:34;;;;;;;36.60;22.77;;;17.70;46.70;;;;;;5053258;28;20017;-77
2022/03/23 09:24:00;;;;;;;35.10;21.73;;;17.70;44.80;;;;;;5052774;28;20107;-77
2022/03/23 09:26:25;;;;;;;36.95;22.75;;;17.70;46.10;;;;;;5052819;28;20051;-76
2022/03/23 09:28:51;;;;;;;34.78;22.55;;;17.90;46.50;;;;;;5053268;28;20491;-76
2022/03/23 09:31:17;;;;;;;36.00;22.65;;;18.00;43.70;;;;;;5052299;28;20503;-76
2022/03/23 09:33:48;;;;;;;36.88;22.90;;;18.00;45.60;;;;;;5051763;28;20061;-77
2022/03/23 09:39:00;;;;;;;32.85;23.65;;;18.30;44.70;;;;;;5051764;28;20102;-77
2022/03/23 09:41:26;;;;;;;31.40;22.55;;;18.50;44.30;;;;;;5050927;28;20080;-76
2022/03/23 09:43:52;;;;;;;29.27;21.95;;;18.50;43.40;;;;;;5050712;28;20021;-77
2022/03/23 09:46:18;;;;;;;33.78;22.63;;;18.70;43.20;;;;;;5051323;28;20472;-76
2022/03/23 09:48:44;;;;;;;33.47;23.45;;;18.70;42.40;;;;;;5050518;28;20040;-77
2022/03/23 09:51:11;;;;;;;33.83;22.77;;;18.70;42.60;;;;;;5049541;28;20037;-76
2022/03/23 09:53:38;;;;;;;31.42;21.95;;;18.70;43.30;;;;;;5051419;28;20438;-77
2022/03/23 09:56:04;;;;;;;37.50;24.40;;;18.80;43.40;;;;;;5051672;28;20032;-77
2022/03/23 09:58:29;;;;;;;32.45;22.83;;;19.00;41.90;;;;;;5053369;28;20496;-76
2022/03/23 10:00:55;;;;;;;30.55;22.98;;;19.10;43.10;;;;;;5055685;28;20029;-77
2022/03/23 10:04:20;;;;;;;35.03;23.38;;;19.20;41.70;;;;;;5056590;28;20086;-77
2022/03/23 10:06:54;;;;;;;30.92;22.40;;;19.30;42.00;;;;;;5056118;28;20035;-76
2022/03/23 10:09:25;;;;;;;36.63;23.75;;;19.40;41.00;;;;;;5056090;28;20056;-77
2022/03/23 10:12:19;;;;;;;31.95;23.00;;;19.60;41.60;;;;;;5056379;28;20025;-77
2022/03/23 10:15:26;;;;;;;46.75;24.05;;;19.60;41.60;;;;;;5056415;28;20064;-77
2022/03/23 10:18:23;;;;;;;32.63;22.38;;;19.70;40.40;;;;;;5056196;28;20020;-76
2022/03/23 10:20:48;;;;;;;30.88;22.27;;;19.80;40.00;;;;;;5036386;28;20079;-77
2022/03/23 10:23:21;;;;;;;32.50;22.67;;;19.90;39.90;;;;;;5035997;28;20018;-76
2022/03/23 10:25:46;;;;;;;;;;;20.10;40.50;;;;;;5036728;28;20080;-77
2022/03/23 10:28:13;;;;;;;33.72;22.83;;;20.20;40.20;;;;;;5036325;28;19905;-76
2022/03/23 10:30:39;;;;;;;33.25;22.90;;;20.30;39.40;;;;;;5036335;28;20030;-77
2022/03/23 10:33:25;;;;;;;31.27;22.98;;;20.30;40.50;;;;;;5036255;28;20387;-76
2022/03/23 10:35:51;;;;;;;33.92;22.95;;;20.20;40.30;;;;;;5035568;28;20447;-77
2022/03/23 10:38:19;;;;;;;27.38;19.88;;;20.20;39.50;;;;;;5035904;28;20453;-77
2022/03/23 10:40:47;;;;;;;26.00;20.05;;;20.30;39.60;;;;;;5035648;28;20037;-77
2022/03/23 10:43:16;;;;;;;31.00;19.20;;;20.40;37.00;;;;;;5035233;28;20021;-77
2022/03/23 10:45:42;;;;;;;25.70;19.25;;;20.50;37.10;;;;;;5036580;28;20026;-80
2022/03/23 10:48:14;;;;;;;26.38;17.75;;;20.50;37.60;;;;;;5036323;28;20040;-90
2022/03/23 10:50:55;;;;;;;32.10;20.15;;;20.50;37.80;;;;;;5047229;28;20040;-84
2022/03/23 10:53:37;;;;;;;23.98;18.77;;;20.80;36.90;;;;;;5053966;28;20040;-84
2022/03/23 10:56:03;;;;;;;25.37;18.30;;;20.80;37.10;;;;;;5054665;28;20068;-78
2022/03/23 10:58:29;;;;;;;28.25;19.85;;;21.10;37.20;;;;;;5054837;28;20017;-81
2022/03/23 11:01:04;;;;;;;27.45;20.33;;;21.20;36.90;;;;;;5054524;28;20731;-81
2022/03/23 11:03:48;;;;;;;29.05;19.58;;;21.20;36.20;;;;;;5040274;28;20025;-81
2022/03/23 11:06:16;;;;;;;29.35;20.20;;;21.20;37.20;;;;;;5053562;28;20033;-81
2022/03/23 11:08:47;;;;;;;27.80;20.17;;;21.20;37.20;;;;;;5053954;28;20067;-79
2022/03/23 11:16:47;;;;;;;27.52;18.77;;;21.50;37.60;;;;;;5053632;28;20090;-79
2022/03/23 11:19:23;;;;;;;28.95;20.27;;;21.50;37.80;;;;;;5054643;28;20055;-79
2022/03/23 11:22:00;;;;;;;29.90;20.58;;;21.60;38.20;;;;;;5054351;28;20472;-81
2022/03/23 11:24:28;;;;;;;32.70;20.45;;;21.40;38.70;;;;;;5054592;28;20498;-81
2022/03/23 11:26:55;;;;;;;30.58;19.05;;;21.20;38.10;;;;;;5054029;28;20033;-81
2022/03/23 11:29:21;;;;;;;28.95;19.42;;;21.30;39.70;;;;;;5054185;28;20039;-81
2022/03/23 11:31:47;;;;;;;30.75;19.90;;;21.30;39.30;;;;;;5054606;28;20040;-81
2022/03/23 11:34:18;;;;;;;29.20;20.15;;;21.50;39.10;;;;;;5054010;28;20098;-81
2022/03/23 11:36:47;;;;;;;37.50;20.75;;;21.90;39.00;;;;;;5054510;28;20021;-81
2022/03/23 11:39:13;;;;;;;28.27;18.85;;;22.00;39.30;;;;;;5054183;28;20037;-81
2022/03/23 11:41:41;;;;;;;23.92;16.92;;;22.10;38.60;;;;;;5054070;28;20051;-77
2022/03/23 11:44:07;;;;;;;28.27;18.95;;;22.30;38.10;;;;;;5053999;28;20029;-78
2022/03/23 11:46:33;;;;;;;32.38;19.35;;;22.50;37.90;;;;;;5054221;28;20436;-77
2022/03/23 11:49:12;;;;;;;30.25;20.02;;;22.60;37.70;;;;;;5053314;28;20035;-78
2022/03/23 11:52:10;;;;;;;24.42;18.55;;;22.80;39.00;;;;;;5054294;28;20033;-87
2022/03/23 11:57:54;;;;;;;23.50;16.10;;;23.00;37.80;;;;;;5037717;28;20508;-79
2022/03/23 12:00:21;;;;;;;29.13;17.63;;;22.90;38.10;;;;;;5053226;28;20029;-83
2022/03/23 12:02:47;;;;;;;26.63;17.92;;;22.90;38.50;;;;;;5054187;28;20392;-84
2022/03/23 12:05:32;;;;;;;29.25;18.38;;;23.10;38.20;;;;;;5054183;28;20032;-85
2022/03/23 12:07:58;;;;;;;23.15;17.27;;;23.30;37.60;;;;;;5033815;28;20481;-86
2022/03/23 12:10:31;;;;;;;26.92;17.48;;;23.40;37.50;;;;;;5034492;28;20036;-87
2022/03/23 12:12:57;;;;;;;27.88;17.65;;;23.60;37.30;;;;;;5034301;28;20037;-84
2022/03/23 12:15:25;;;;;;;24.08;17.98;;;23.60;37.40;;;;;;5033834;28;20044;-83
2022/03/23 12:17:55;;;;;;;29.25;18.52;;;23.50;36.80;;;;;;5037552;28;20075;-85
2022/03/23 12:20:37;;;;;;;28.42;18.00;;;23.70;36.20;;;;;;5053845;28;20063;-82
2022/03/23 12:23:15;;;;;;;22.40;17.23;;;23.70;35.90;;;;;;5053993;28;20014;-86
2022/03/23 12:25:55;;;;;;;24.58;16.23;;;23.80;35.50;;;;;;5053881;28;20043;-85
2022/03/23 12:28:26;;;;;;;27.45;16.55;;;23.90;35.70;;;;;;5054072;28;20032;-84
2022/03/23 12:30:58;;;;;;;27.67;16.45;;;23.90;35.00;;;;;;5053518;28;20074;-86
2022/03/23 12:33:31;;;;;;;26.33;14.80;;;24.00;35.00;;;;;;5052417;28;20464;-84
2022/03/23 12:36:02;;;;;;;24.35;14.50;;;24.10;34.40;;;;;;5052028;28;20087;-79
2022/03/23 12:38:29;;;;;;;24.77;14.65;;;24.20;34.00;;;;;;5051859;28;20031;-85
2022/03/23 12:41:02;;;;;;;29.80;14.60;;;24.40;33.70;;;;;;5052074;28;20061;-84
2022/03/23 12:43:37;;;;;;;32.40;14.63;;;24.40;34.00;;;;;;5048590;28;20103;-84
2022/03/23 12:46:04;;;;;;;29.42;15.20;;;24.40;33.20;;;;;;5052115;28;20032;-85
2022/03/23 12:59:48;;;;;;;26.27;12.07;;;24.70;32.50;;;;;;5048811;28;20127;-79
2022/03/23 13:02:20;;;;;;;20.17;12.32;;;24.70;32.10;;;;;;5053097;28;20511;-79
2022/03/23 13:04:46;;;;;;;28.77;12.95;;;24.70;31.90;;;;;;5053328;28;20049;-79
2022/03/23 13:07:29;;;;;;;22.35;12.60;;;24.80;32.90;;;;;;5054476;28;20059;-79